Hub


Voltar

 INFORMAÇÕES METEOROLÓGICAS

METAR FOR SBIL


ADDS - METARS form results

(0317 UTC 22 March 2019)
Data provider http://aviationweather.gov/metar/data/
 
Forecast for: SBIL (ILHEUS AIRPORT , BR)
Text: TAF SBIL 212200Z 2200/2212 09012KT 9999 SCT015 TX28/2211Z TN26/2207Z RMK PEQ
Forecast period: 0000 to 1200 UTC 22 March 2019
Forecast type: FROM: standard forecast or significant change
Winds: from the E (90 degrees) at 14 MPH (12 knots; 6.2 m/s)
Visibility: 6 or more miles 10+ km)
Ceiling: at least 12,000 feet AGL
Clouds: scattered clouds at 1500 feet AGL
Weather: no significant weather forecast for this period


 MAPA DO AEROPORTO


 INFORMAÇÕES DA PISTA

Pista 11 Tamanho da pista 5174 ft Largura da pista 148 ft
Elevação da pista 0 ft Ranhura da pista 0 ft Proa da pista 0
Pista 29 Tamanho da pista 5174 ft Largura da pista 148 ft
Elevação da pista 0 ft Ranhura da pista 0 ft Proa da pista 0

 FREQUÊNCIAS DO AEROPORTO

Tipo APP Nome APP Frequência 120.1 MHZ

 AUXÍLIOS DE NAVEGAÇÃO PRÓXIMOS AO AEROPORTO

Tipo NDB Nome Ilheus Frequência 305 KHZ